Time;durP1;ratioP1;P1;durP2;ratioP2;P2;SDS_P1;SDS_P2;PMS_P1;PMS_P2;Temp;Humidity;BMP_temperature;BMP_pressure;BME280_temperature;BME280_humidity;BME280_pressure;Samples;Min_cycle;Max_cycle;Signal;HPM_P1;HPM_P2
2022/05/04 00:00:30;;;;;;;2.08;0.80;;;4.00;76.50;;;;;;5114093;28;20051;-72
2022/05/04 00:02:58;;;;;;;2.00;1.20;;;4.00;76.80;;;;;;5100491;28;20063;-72
2022/05/04 00:05:26;;;;;;;1.40;0.80;;;3.90;77.30;;;;;;5113463;28;20058;-72
2022/05/04 00:07:54;;;;;;;1.52;0.93;;;3.90;78.20;;;;;;5113878;28;20051;-72
2022/05/04 00:10:22;;;;;;;2.70;0.75;;;3.90;78.70;;;;;;5112993;28;20051;-71
2022/05/04 00:12:49;;;;;;;1.25;1.00;;;3.90;79.20;;;;;;5111110;28;20468;-72
2022/05/04 00:15:17;;;;;;;1.63;0.70;;;3.90;80.40;;;;;;5114446;28;20061;-72
2022/05/04 00:17:44;;;;;;;1.35;1.08;;;3.80;80.10;;;;;;5111918;28;20493;-72
2022/05/04 00:20:12;;;;;;;2.15;0.60;;;3.80;81.30;;;;;;5114515;28;20131;-71
2022/05/04 00:22:39;;;;;;;6.45;1.10;;;3.80;81.70;;;;;;5098600;28;20105;-71
2022/05/04 00:25:09;;;;;;;0.52;0.52;;;3.80;81.60;;;;;;5093532;28;20093;-71
2022/05/04 00:27:36;;;;;;;1.42;0.85;;;3.80;82.10;;;;;;5093350;28;20146;-71
2022/05/04 00:30:05;;;;;;;0.98;0.98;;;3.80;82.00;;;;;;5093826;28;20054;-71
2022/05/04 00:32:32;;;;;;;6.07;0.50;;;3.80;82.40;;;;;;5111057;28;20044;-71
2022/05/04 00:35:00;;;;;;;0.63;0.52;;;3.80;82.60;;;;;;5134619;27;20055;-71
2022/05/04 00:37:28;;;;;;;0.77;0.70;;;3.80;82.90;;;;;;5133551;27;20255;-72
2022/05/04 00:39:55;;;;;;;0.70;0.40;;;3.80;82.80;;;;;;5095240;28;20105;-71
2022/05/04 00:42:23;;;;;;;1.25;0.75;;;3.80;83.30;;;;;;5110514;28;20491;-70
2022/05/04 00:44:51;;;;;;;0.40;0.40;;;3.80;83.60;;;;;;5111780;28;20043;-71
2022/05/04 00:47:19;;;;;;;2.00;0.68;;;3.80;83.80;;;;;;5110153;28;20404;-71
2022/05/04 00:49:49;;;;;;;0.70;0.50;;;3.90;84.10;;;;;;5092459;28;20494;-71
2022/05/04 00:52:18;;;;;;;1.05;0.60;;;3.80;84.50;;;;;;5091630;28;20044;-71
2022/05/04 00:54:47;;;;;;;1.17;0.50;;;3.80;84.50;;;;;;5093027;28;20094;-71
2022/05/04 00:57:17;;;;;;;1.77;0.90;;;3.80;85.20;;;;;;5093014;28;20530;-72
2022/05/04 00:59:45;;;;;;;3.03;0.50;;;3.80;85.60;;;;;;5091858;28;20571;-72
2022/05/04 01:02:12;;;;;;;1.33;0.55;;;3.70;86.50;;;;;;5092890;28;20094;-72
2022/05/04 01:04:39;;;;;;;0.85;0.73;;;3.70;88.00;;;;;;5091623;28;20093;-71
2022/05/04 01:07:06;;;;;;;2.78;0.50;;;3.70;88.30;;;;;;5090883;28;20048;-71
2022/05/04 01:09:33;;;;;;;1.23;0.50;;;3.70;87.90;;;;;;5092656;28;20105;-71
2022/05/04 01:12:01;;;;;;;3.15;0.60;;;3.60;88.30;;;;;;5074338;28;20044;-71
2022/05/04 01:14:28;;;;;;;1.45;0.57;;;3.60;89.10;;;;;;5110658;28;20112;-72
2022/05/04 01:16:56;;;;;;;1.17;0.50;;;3.60;89.30;;;;;;5097732;28;20069;-71
2022/05/04 01:19:24;;;;;;;1.98;0.50;;;3.60;90.00;;;;;;5111530;28;20040;-72
2022/05/04 01:21:52;;;;;;;8.15;0.65;;;3.60;90.20;;;;;;5105287;28;20044;-72
2022/05/04 01:24:19;;;;;;;1.33;0.40;;;3.50;90.50;;;;;;5106083;28;20047;-72
2022/05/04 01:26:47;;;;;;;5.53;2.15;;;3.50;90.60;;;;;;5092368;28;20040;-71
2022/05/04 01:29:14;;;;;;;2.58;0.70;;;3.50;90.50;;;;;;5091787;28;20153;-73
2022/05/04 01:31:42;;;;;;;0.43;0.30;;;3.50;90.80;;;;;;5090564;28;20056;-72
2022/05/04 01:34:10;;;;;;;2.20;0.60;;;3.50;91.00;;;;;;5091785;28;20044;-71
2022/05/04 01:36:37;;;;;;;1.00;0.60;;;3.50;91.00;;;;;;5107544;28;20447;-75
2022/05/04 01:39:05;;;;;;;1.25;0.52;;;3.60;90.90;;;;;;5074261;28;20127;-75
2022/05/04 01:44:22;;;;;;;1.45;0.52;;;3.60;90.90;;;;;;5094758;28;20142;-74
2022/05/04 01:46:50;;;;;;;2.42;0.63;;;3.50;91.30;;;;;;5090127;28;20067;-75
2022/05/04 01:49:17;;;;;;;1.30;0.55;;;3.50;91.30;;;;;;5091937;28;20446;-75
2022/05/04 01:51:44;;;;;;;2.47;0.40;;;3.50;91.30;;;;;;5089787;28;20587;-75
2022/05/04 01:54:13;;;;;;;0.50;0.50;;;3.50;91.70;;;;;;5092193;28;20510;-76
2022/05/04 01:56:40;;;;;;;1.63;0.70;;;3.50;91.80;;;;;;5092179;28;20044;-74
2022/05/04 01:59:07;;;;;;;2.55;0.60;;;3.50;92.10;;;;;;5091665;28;20048;-75
2022/05/04 02:01:34;;;;;;;0.82;0.57;;;3.40;92.10;;;;;;5090754;28;20085;-75
2022/05/04 02:04:03;;;;;;;4.32;0.95;;;3.40;92.40;;;;;;5091793;28;20577;-75
2022/05/04 02:06:31;;;;;;;2.75;0.70;;;3.30;92.60;;;;;;5090399;28;20421;-76
2022/05/04 02:08:58;;;;;;;2.63;0.70;;;3.30;93.10;;;;;;5090776;28;20372;-76
2022/05/04 02:11:28;;;;;;;2.72;0.50;;;3.30;92.90;;;;;;5098064;28;20051;-75
2022/05/04 02:13:56;;;;;;;1.95;1.10;;;3.20;93.30;;;;;;5111582;28;20481;-75
2022/05/04 02:16:23;;;;;;;4.60;0.60;;;3.20;94.00;;;;;;5110696;28;20549;-75
2022/05/04 02:18:50;;;;;;;1.25;0.60;;;3.30;94.00;;;;;;5109242;28;20058;-74
2022/05/04 02:21:18;;;;;;;0.95;0.60;;;3.30;93.90;;;;;;5095229;28;20139;-75
2022/05/04 02:23:45;;;;;;;1.90;0.45;;;3.20;94.20;;;;;;5110479;28;20398;-74
2022/05/04 02:26:12;;;;;;;2.92;0.63;;;3.30;94.20;;;;;;5102769;28;20075;-74
2022/05/04 02:28:43;;;;;;;13.10;1.08;;;3.30;94.40;;;;;;5089545;28;20477;-72
2022/05/04 02:31:13;;;;;;;1.15;0.50;;;3.30;94.40;;;;;;5073218;28;20044;-72
2022/05/04 02:33:42;;;;;;;0.93;0.60;;;3.30;94.90;;;;;;5090014;28;20055;-71
2022/05/04 02:38:54;;;;;;;0.50;0.50;;;3.30;95.00;;;;;;5082415;28;20044;-72
2022/05/04 02:41:21;;;;;;;2.60;0.68;;;3.40;94.70;;;;;;5099587;28;20051;-71
2022/05/04 02:43:49;;;;;;;2.08;0.65;;;3.30;95.00;;;;;;5111569;28;20058;-70
2022/05/04 02:46:18;;;;;;;2.00;0.65;;;3.40;95.50;;;;;;5106619;28;20040;-71
2022/05/04 02:48:55;;;;;;;0.50;0.50;;;3.40;95.60;;;;;;5091413;28;20466;-71
2022/05/04 02:51:22;;;;;;;6.65;0.80;;;3.40;95.40;;;;;;5091227;28;20048;-71
2022/05/04 02:53:50;;;;;;;1.27;0.60;;;3.40;95.40;;;;;;5089719;28;20507;-72
2022/05/04 02:56:17;;;;;;;2.17;0.65;;;3.40;95.10;;;;;;5089203;28;20050;-71
2022/05/04 02:58:45;;;;;;;2.08;0.90;;;3.50;95.30;;;;;;5094197;28;20136;-71
2022/05/04 03:04:03;;;;;;;1.38;0.60;;;3.60;95.20;;;;;;5090993;28;20044;-73
2022/05/04 03:06:30;;;;;;;3.30;0.73;;;3.60;95.20;;;;;;5120259;28;20059;-69
2022/05/04 03:08:57;;;;;;;2.35;0.90;;;3.70;94.90;;;;;;5112690;28;20047;-71
2022/05/04 03:14:10;;;;;;;2.92;0.95;;;3.80;94.40;;;;;;5092324;28;20062;-71
2022/05/04 03:16:39;;;;;;;1.38;0.95;;;3.80;93.80;;;;;;5089444;28;20039;-73
2022/05/04 03:19:07;;;;;;;1.00;0.50;;;3.80;93.40;;;;;;5085787;28;20519;-75
2022/05/04 03:21:35;;;;;;;2.67;1.63;;;3.80;93.30;;;;;;5090802;28;20148;-76
2022/05/04 03:24:03;;;;;;;2.55;0.70;;;3.80;93.30;;;;;;5088719;28;20051;-77
2022/05/04 03:26:30;;;;;;;1.00;0.90;;;3.90;93.50;;;;;;5090663;28;20044;-76
2022/05/04 03:28:57;;;;;;;5.50;0.65;;;3.90;93.40;;;;;;5098300;28;20554;-76
2022/05/04 03:31:25;;;;;;;2.95;0.82;;;4.00;92.60;;;;;;5093040;28;20072;-75
2022/05/04 03:33:53;;;;;;;2.47;0.60;;;4.00;92.20;;;;;;5106033;28;20047;-76
2022/05/04 03:36:20;;;;;;;0.43;0.43;;;4.00;91.90;;;;;;5094419;28;20105;-75
2022/05/04 03:38:48;;;;;;;10.95;1.10;;;4.00;92.20;;;;;;5089338;28;20436;-74
2022/05/04 03:41:18;;;;;;;3.42;0.70;;;4.10;92.30;;;;;;5098427;28;20082;-75
2022/05/04 03:43:45;;;;;;;1.00;0.60;;;4.10;92.20;;;;;;5113202;28;20092;-75
2022/05/04 03:46:14;;;;;;;1.40;0.70;;;4.10;91.60;;;;;;5131274;27;20581;-75
2022/05/04 03:48:41;;;;;;;3.45;0.85;;;4.20;91.30;;;;;;5122363;27;20067;-76
2022/05/04 03:51:10;;;;;;;0.82;0.52;;;4.30;91.30;;;;;;5089897;28;20064;-74
2022/05/04 03:53:37;;;;;;;2.92;0.80;;;4.30;91.60;;;;;;5090836;28;20151;-77
2022/05/04 03:56:05;;;;;;;4.00;0.50;;;4.40;91.30;;;;;;5094042;28;20052;-76
2022/05/04 03:58:33;;;;;;;3.70;0.80;;;4.40;91.30;;;;;;5075199;28;20044;-76
2022/05/04 04:01:00;;;;;;;9.27;1.27;;;4.50;90.60;;;;;;5092792;28;20052;-75
2022/05/04 04:03:27;;;;;;;3.05;1.27;;;4.50;90.30;;;;;;5088105;28;20130;-75
2022/05/04 04:05:55;;;;;;;7.68;1.25;;;4.60;90.00;;;;;;5095794;28;20420;-75
2022/05/04 04:08:23;;;;;;;2.63;1.00;;;4.60;89.30;;;;;;5094191;28;20139;-70
2022/05/04 04:10:51;;;;;;;6.35;0.80;;;4.70;88.30;;;;;;5112507;28;20066;-71
2022/05/04 04:13:18;;;;;;;1.67;0.90;;;4.80;87.60;;;;;;5104546;28;20142;-72
2022/05/04 04:15:47;;;;;;;1.75;0.75;;;4.80;87.70;;;;;;5094720;27;20101;-72
2022/05/04 04:18:14;;;;;;;4.18;1.00;;;4.80;87.80;;;;;;5107681;27;20126;-71
2022/05/04 04:23:28;;;;;;;1.27;0.80;;;4.90;87.40;;;;;;5093313;27;20055;-77
2022/05/04 04:25:55;;;;;;;2.35;0.70;;;5.00;86.60;;;;;;5103296;28;20489;-78
2022/05/04 04:28:22;;;;;;;0.75;0.70;;;5.00;85.50;;;;;;5112663;28;20047;-78
2022/05/04 04:30:49;;;;;;;2.88;0.60;;;5.10;85.10;;;;;;5112691;28;20075;-78
2022/05/04 04:33:17;;;;;;;3.53;0.70;;;5.20;85.00;;;;;;5119197;27;20058;-78
2022/05/04 04:35:44;;;;;;;3.55;1.10;;;5.20;85.50;;;;;;5105626;27;20046;-79
2022/05/04 04:38:12;;;;;;;1.13;0.88;;;5.30;84.80;;;;;;5086838;28;20052;-77
2022/05/04 04:40:40;;;;;;;4.60;1.23;;;5.30;83.80;;;;;;5124252;27;20054;-76
2022/05/04 04:43:08;;;;;;;12.95;1.50;;;5.50;83.20;;;;;;5113577;27;20043;-77
2022/05/04 04:45:35;;;;;;;4.22;1.30;;;5.60;82.60;;;;;;5112112;27;20058;-76
2022/05/04 04:48:02;;;;;;;5.07;1.20;;;5.70;82.20;;;;;;5111900;28;20062;-76
2022/05/04 04:50:30;;;;;;;2.80;1.00;;;5.80;81.50;;;;;;5113727;27;20051;-76
2022/05/04 04:52:57;;;;;;;2.15;0.80;;;5.90;80.30;;;;;;5108195;27;20153;-77
2022/05/04 04:55:24;;;;;;;2.22;1.20;;;5.90;79.50;;;;;;5113403;27;20502;-76
2022/05/04 04:57:53;;;;;;;1.70;0.93;;;5.90;78.90;;;;;;5094829;28;20048;-71
2022/05/04 05:00:21;;;;;;;2.08;0.70;;;5.90;78.60;;;;;;5110802;27;20047;-75
2022/05/04 05:02:49;;;;;;;1.77;0.90;;;5.90;78.50;;;;;;5094618;28;20044;-76
2022/05/04 05:05:16;;;;;;;5.88;1.20;;;5.90;77.90;;;;;;5103237;28;20058;-76
2022/05/04 05:07:43;;;;;;;3.55;1.05;;;5.90;78.10;;;;;;5128266;27;20079;-76
2022/05/04 05:10:11;;;;;;;5.00;1.40;;;6.00;78.50;;;;;;5132275;27;20059;-76
2022/05/04 05:12:38;;;;;;;2.10;0.77;;;6.00;79.00;;;;;;5108009;27;20043;-76
2022/05/04 05:17:53;;;;;;;5.80;1.10;;;5.90;78.10;;;;;;5116755;27;20473;-75
2022/05/04 05:20:20;;;;;;;4.93;1.10;;;6.10;78.50;;;;;;5121725;27;20040;-75
2022/05/04 05:22:47;;;;;;;2.85;1.38;;;6.20;79.10;;;;;;5090767;28;20397;-76
2022/05/04 05:25:14;;;;;;;3.42;1.60;;;6.20;78.20;;;;;;5115597;27;20542;-77
2022/05/04 05:27:45;;;;;;;2.63;1.00;;;6.20;78.10;;;;;;5106328;28;20555;-77
2022/05/04 05:30:14;;;;;;;4.53;1.17;;;6.20;77.90;;;;;;5095280;27;20052;-76
2022/05/04 05:32:42;;;;;;;6.70;1.45;;;6.30;77.70;;;;;;5106669;27;20079;-76
2022/05/04 05:35:10;;;;;;;2.45;0.80;;;6.30;77.70;;;;;;5089044;28;20143;-77
2022/05/04 05:37:37;;;;;;;1.73;1.05;;;6.30;76.80;;;;;;5088624;28;20040;-78
2022/05/04 05:40:06;;;;;;;4.15;1.13;;;6.40;76.40;;;;;;5094077;28;20535;-71
2022/05/04 05:42:34;;;;;;;3.03;1.35;;;6.40;76.60;;;;;;5091137;28;20131;-77
2022/05/04 05:45:01;;;;;;;2.60;1.13;;;6.30;77.10;;;;;;5088482;28;20052;-77
2022/05/04 05:47:32;;;;;;;4.85;1.00;;;6.40;78.00;;;;;;5092023;28;20070;-70
2022/05/04 05:49:59;;;;;;;2.60;0.93;;;6.50;77.00;;;;;;5097030;28;20056;-71
2022/05/04 05:52:27;;;;;;;4.20;0.95;;;6.70;76.10;;;;;;5104515;28;20043;-70
2022/05/04 05:54:55;;;;;;;5.43;1.10;;;7.00;74.10;;;;;;5110668;28;20134;-70
2022/05/04 05:57:23;;;;;;;4.10;1.15;;;7.20;72.90;;;;;;5098319;28;20415;-73
2022/05/04 05:59:51;;;;;;;3.30;1.30;;;7.40;72.20;;;;;;5101175;28;20059;-72
2022/05/04 06:02:19;;;;;;;3.88;1.10;;;7.70;71.40;;;;;;5091455;27;20415;-73
2022/05/04 06:04:48;;;;;;;7.28;1.05;;;8.30;70.40;;;;;;5100784;28;20056;-76
2022/05/04 06:07:15;;;;;;;8.18;1.05;;;8.50;68.60;;;;;;5092062;28;20052;-79
2022/05/04 06:09:43;;;;;;;7.18;0.90;;;8.60;67.50;;;;;;5073836;28;20048;-77
2022/05/04 06:12:11;;;;;;;4.15;1.45;;;8.70;66.80;;;;;;5090479;28;20047;-77
2022/05/04 06:14:40;;;;;;;2.28;0.93;;;8.80;66.10;;;;;;5094359;28;20053;-75
2022/05/04 06:17:07;;;;;;;2.00;0.98;;;8.90;65.50;;;;;;5105595;28;20055;-76
2022/05/04 06:19:34;;;;;;;5.55;1.10;;;9.10;64.10;;;;;;5100370;28;20485;-76
2022/05/04 06:22:03;;;;;;;5.55;1.02;;;9.30;62.80;;;;;;5089580;28;20055;-76
2022/05/04 06:24:30;;;;;;;4.28;1.27;;;9.20;62.30;;;;;;5089457;28;20055;-77
2022/05/04 06:26:59;;;;;;;4.95;1.10;;;9.10;62.80;;;;;;5095476;28;20561;-76
2022/05/04 06:34:06;;;;;;;3.30;1.38;;;9.70;63.30;;;;;;5106689;28;20055;-75
2022/05/04 06:35:03;;;;;;;5.63;0.70;;;11.50;58.40;;;;;;5092101;28;20051;-77
2022/05/04 06:37:32;;;;;;;1.70;0.93;;;12.10;56.30;;;;;;5093273;28;20097;-71
2022/05/04 06:40:00;;;;;;;2.88;0.85;;;12.50;56.00;;;;;;5099646;28;20075;-70
2022/05/04 06:42:27;;;;;;;3.25;1.02;;;12.80;53.60;;;;;;5105639;28;20073;-71
2022/05/04 06:44:54;;;;;;;2.63;0.93;;;13.20;53.20;;;;;;5106857;28;20055;-70
2022/05/04 06:47:21;;;;;;;0.95;0.70;;;13.20;52.40;;;;;;5106801;28;20047;-70
2022/05/04 06:49:49;;;;;;;6.30;1.00;;;12.70;52.10;;;;;;5108785;28;20134;-77
2022/05/04 06:52:16;;;;;;;9.90;2.35;;;12.10;52.50;;;;;;5108893;28;20045;-75
2022/05/04 06:54:45;;;;;;;2.10;0.85;;;11.50;53.50;;;;;;5107261;28;20526;-76
2022/05/04 06:57:12;;;;;;;10.25;1.38;;;11.20;54.00;;;;;;5090880;28;20040;-77
2022/05/04 06:59:40;;;;;;;3.92;1.38;;;10.70;54.90;;;;;;5102252;28;20120;-76
2022/05/04 07:02:08;;;;;;;2.58;0.90;;;10.50;55.90;;;;;;5104718;28;20130;-78
2022/05/04 07:04:35;;;;;;;4.13;0.60;;;10.30;56.10;;;;;;5104937;28;20044;-76
2022/05/04 07:07:02;;;;;;;3.47;0.70;;;9.80;56.20;;;;;;5102411;28;20040;-77
2022/05/04 07:09:29;;;;;;;5.30;0.80;;;10.40;57.30;;;;;;5087330;28;20043;-77
2022/05/04 07:11:58;;;;;;;5.78;0.95;;;11.50;55.20;;;;;;5107220;28;20047;-76
2022/05/04 07:14:25;;;;;;;4.40;2.03;;;12.40;53.50;;;;;;5107939;28;20078;-69
2022/05/04 07:16:53;;;;;;;1.77;0.82;;;12.30;52.10;;;;;;5106180;28;20582;-70
2022/05/04 07:19:20;;;;;;;20.17;1.75;;;11.80;52.40;;;;;;5091462;28;20044;-69
2022/05/04 07:21:47;;;;;;;3.97;0.75;;;11.20;53.60;;;;;;5096184;28;20070;-69
2022/05/04 07:24:14;;;;;;;2.03;1.02;;;10.70;54.60;;;;;;5102007;28;20052;-70
2022/05/04 07:26:42;;;;;;;2.85;1.10;;;10.30;55.30;;;;;;5103732;28;20079;-70
2022/05/04 07:29:11;;;;;;;2.50;0.88;;;10.10;56.10;;;;;;5104937;28;20411;-71
2022/05/04 07:31:38;;;;;;;1.75;0.98;;;10.00;56.80;;;;;;5098378;28;20039;-71
2022/05/04 07:34:06;;;;;;;1.80;1.30;;;10.00;56.80;;;;;;5098546;28;20060;-70
2022/05/04 07:36:34;;;;;;;2.28;0.95;;;10.00;57.90;;;;;;5110779;28;20043;-69
2022/05/04 07:39:01;;;;;;;1.63;0.80;;;9.60;58.70;;;;;;5095707;28;20082;-70
2022/05/04 07:44:20;;;;;;;5.90;0.95;;;9.00;59.80;;;;;;5086569;28;20060;-71
2022/05/04 07:46:48;;;;;;;2.25;1.27;;;8.60;61.20;;;;;;5093498;28;20090;-71
2022/05/04 07:49:16;;;;;;;4.05;1.15;;;8.60;62.40;;;;;;5092452;28;20790;-71
2022/05/04 07:51:44;;;;;;;9.57;1.77;;;8.70;62.40;;;;;;5134525;27;20057;-70
2022/05/04 07:54:12;;;;;;;4.10;1.10;;;8.90;62.20;;;;;;5099715;28;20047;-70
2022/05/04 07:56:40;;;;;;;5.10;0.70;;;8.80;61.80;;;;;;5095061;28;20113;-70
2022/05/04 07:59:07;;;;;;;7.88;1.50;;;9.10;61.50;;;;;;5084672;28;20219;-70
2022/05/04 08:04:24;;;;;;;4.43;2.33;;;10.40;59.80;;;;;;5107528;28;20047;-68
2022/05/04 08:06:51;;;;;;;2.20;1.02;;;10.90;58.40;;;;;;5112688;28;20423;-70
2022/05/04 08:09:18;;;;;;;1.00;0.60;;;12.00;56.30;;;;;;5085049;28;20075;-71
2022/05/04 08:11:45;;;;;;;1.10;0.60;;;12.10;54.00;;;;;;5108092;28;20051;-70
2022/05/04 08:14:13;;;;;;;3.45;0.88;;;11.60;53.40;;;;;;5087003;28;20075;-69
2022/05/04 08:16:41;;;;;;;5.22;0.82;;;10.90;54.40;;;;;;5091799;28;20078;-70
2022/05/04 08:19:08;;;;;;;5.70;1.58;;;10.20;55.80;;;;;;5091711;28;20075;-70
2022/05/04 08:21:37;;;;;;;3.72;1.50;;;9.60;57.10;;;;;;5093634;28;20574;-70
2022/05/04 08:24:05;;;;;;;8.18;1.02;;;9.10;58.30;;;;;;5088957;28;20076;-71
2022/05/04 08:26:32;;;;;;;2.00;0.60;;;8.70;59.30;;;;;;5092997;28;20457;-71
2022/05/04 08:29:00;;;;;;;3.70;0.80;;;8.40;60.00;;;;;;5092823;28;20105;-70
2022/05/04 08:31:28;;;;;;;5.75;1.48;;;8.20;60.20;;;;;;5112723;28;20081;-70
2022/05/04 08:33:56;;;;;;;1.55;0.63;;;8.20;59.40;;;;;;5110872;28;20482;-71
2022/05/04 08:36:24;;;;;;;1.83;0.90;;;8.70;60.00;;;;;;5093909;28;20048;-71
2022/05/04 08:38:51;;;;;;;3.70;2.30;;;10.80;59.00;;;;;;5092416;28;20601;-71
2022/05/04 08:41:21;;;;;;;4.65;0.90;;;12.70;55.80;;;;;;5104870;28;20422;-70
2022/05/04 08:43:51;;;;;;;4.88;1.73;;;13.40;53.20;;;;;;5101134;28;20040;-70
2022/05/04 08:46:23;;;;;;;2.80;0.68;;;12.90;52.90;;;;;;5091292;28;20044;-70
2022/05/04 08:48:51;;;;;;;3.90;1.10;;;12.60;54.60;;;;;;5100633;28;20048;-71
2022/05/04 08:51:20;;;;;;;2.28;0.90;;;14.20;54.70;;;;;;5097851;28;20051;-70
2022/05/04 08:53:47;;;;;;;6.53;1.00;;;14.70;50.40;;;;;;5100426;28;20360;-71
2022/05/04 08:56:14;;;;;;;5.68;0.95;;;13.90;50.30;;;;;;5105788;27;20478;-70
2022/05/04 08:58:41;;;;;;;5.07;1.40;;;12.90;50.80;;;;;;5091805;28;20078;-71
2022/05/04 09:01:09;;;;;;;2.95;2.10;;;12.00;52.00;;;;;;5103769;27;20072;-72
2022/05/04 09:03:38;;;;;;;3.17;1.27;;;11.30;54.40;;;;;;5108190;28;20051;-70
2022/05/04 09:06:05;;;;;;;4.55;1.00;;;10.60;56.10;;;;;;5110274;28;20498;-70
2022/05/04 09:08:53;;;;;;;7.03;1.00;;;10.00;57.50;;;;;;5100974;28;20054;-73
2022/05/04 09:11:22;;;;;;;9.30;0.98;;;9.50;59.80;;;;;;5100814;28;20134;-71
2022/05/04 09:13:49;;;;;;;14.60;5.40;;;9.10;60.90;;;;;;5093091;28;20044;-71
2022/05/04 09:16:26;;;;;;;6.40;3.92;;;9.00;61.70;;;;;;5108038;28;20447;-70
2022/05/04 09:18:54;;;;;;;1.50;1.33;;;9.30;61.80;;;;;;5088208;28;20097;-79
2022/05/04 09:21:22;;;;;;;5.82;1.08;;;9.60;60.70;;;;;;5098991;28;20040;-78
2022/05/04 09:23:55;;;;;;;2.95;0.63;;;9.80;60.20;;;;;;5094750;28;20455;-77
2022/05/04 09:26:23;;;;;;;3.67;0.93;;;9.80;59.60;;;;;;5090495;28;20507;-79
2022/05/04 09:28:51;;;;;;;1.13;0.70;;;9.60;59.60;;;;;;5092402;28;20452;-79
2022/05/04 09:31:20;;;;;;;1.42;1.00;;;9.50;59.80;;;;;;5098039;28;20075;-77
2022/05/04 09:33:54;;;;;;;3.75;1.15;;;9.40;60.30;;;;;;5112625;28;20047;-77
2022/05/04 09:36:33;;;;;;;3.20;1.30;;;9.30;60.20;;;;;;5111235;28;20101;-76
2022/05/04 09:44:57;;;;;;;7.35;1.10;;;9.70;59.20;;;;;;5091651;28;20090;-78
2022/05/04 09:47:26;;;;;;;0.60;0.60;;;10.10;58.50;;;;;;5090434;28;20412;-77
2022/05/04 09:50:04;;;;;;;2.42;0.85;;;10.10;58.90;;;;;;5091773;28;20473;-77
2022/05/04 09:52:41;;;;;;;1.08;1.00;;;9.90;59.00;;;;;;5089779;28;20534;-78
2022/05/04 09:55:15;;;;;;;6.68;0.90;;;9.70;58.70;;;;;;5091378;28;20048;-78
2022/05/04 09:57:43;;;;;;;1.63;1.00;;;9.60;56.90;;;;;;5091581;28;20051;-78
2022/05/04 10:00:12;;;;;;;4.13;0.90;;;9.60;56.20;;;;;;5091971;28;20148;-78
2022/05/04 10:02:40;;;;;;;2.97;1.13;;;9.70;56.10;;;;;;5092517;28;20101;-79
2022/05/04 10:05:09;;;;;;;8.68;1.40;;;9.70;55.90;;;;;;5090719;28;20044;-77
2022/05/04 10:07:37;;;;;;;3.85;1.05;;;9.70;57.30;;;;;;5090642;28;20086;-78
2022/05/04 10:10:06;;;;;;;3.65;1.00;;;9.80;58.00;;;;;;5092464;28;20048;-76
2022/05/04 10:12:39;;;;;;;2.83;0.80;;;9.70;57.90;;;;;;5095039;28;20063;-78
2022/05/04 10:15:10;;;;;;;1.23;1.13;;;9.90;57.90;;;;;;5099437;28;20113;-78
2022/05/04 10:17:44;;;;;;;1.40;0.70;;;10.20;57.60;;;;;;5090650;28;20066;-78
2022/05/04 10:20:14;;;;;;;8.63;1.10;;;10.70;56.90;;;;;;5092367;28;20052;-78
2022/05/04 10:22:44;;;;;;;3.22;1.30;;;11.70;56.10;;;;;;5112286;28;20502;-77
2022/05/04 10:25:15;;;;;;;2.95;0.70;;;13.90;54.50;;;;;;5105129;27;20056;-77
2022/05/04 10:27:46;;;;;;;0.98;0.82;;;15.80;49.50;;;;;;5097463;27;20066;-78
2022/05/04 10:30:31;;;;;;;2.28;0.93;;;16.00;47.00;;;;;;5111451;27;20051;-79
2022/05/04 10:32:59;;;;;;;1.17;0.60;;;15.30;47.10;;;;;;5111999;28;20047;-78
2022/05/04 10:35:35;;;;;;;3.17;0.90;;;14.10;47.50;;;;;;5105381;28;20040;-76
2022/05/04 10:38:11;;;;;;;2.28;0.60;;;12.80;50.40;;;;;;5095393;28;20188;-79
2022/05/04 10:40:41;;;;;;;5.60;0.95;;;11.60;53.80;;;;;;5089012;28;20047;-78
2022/05/04 10:43:16;;;;;;;4.20;1.25;;;10.70;56.00;;;;;;5106883;28;20113;-80
2022/05/04 10:45:51;;;;;;;5.05;1.30;;;10.10;58.30;;;;;;5103633;28;20058;-79
2022/05/04 10:48:28;;;;;;;5.43;1.00;;;9.40;61.90;;;;;;5095279;28;20057;-77
2022/05/04 10:50:59;;;;;;;12.02;0.85;;;9.00;62.60;;;;;;5102184;28;21934;-76
2022/05/04 10:53:44;;;;;;;2.97;0.75;;;8.90;62.00;;;;;;5104932;28;20047;-76
2022/05/04 10:56:13;;;;;;;3.47;1.10;;;9.10;61.20;;;;;;5091152;28;20051;-80
2022/05/04 10:58:53;;;;;;;23.80;1.45;;;9.70;61.50;;;;;;5099541;28;20055;-76
2022/05/04 11:01:23;;;;;;;6.07;0.90;;;10.30;60.50;;;;;;5110457;28;20106;-76
2022/05/04 11:03:55;;;;;;;6.45;0.85;;;10.40;59.20;;;;;;5114271;28;20092;-77
2022/05/04 11:06:27;;;;;;;;;;;10.60;57.50;;;;;;5096628;28;20052;-72
2022/05/04 11:08:56;;;;;;;2.55;0.85;;;10.50;56.10;;;;;;5107370;28;19923;-72
2022/05/04 11:11:24;;;;;;;2.10;0.90;;;10.30;56.60;;;;;;5098986;28;20055;-71
2022/05/04 11:13:53;;;;;;;1.65;0.70;;;10.20;57.30;;;;;;5093483;28;20044;-72
2022/05/04 11:16:22;;;;;;;1.38;0.65;;;10.10;57.90;;;;;;5100775;28;20062;-71
2022/05/04 11:18:49;;;;;;;0.98;0.52;;;10.00;58.60;;;;;;5114695;28;20051;-71
2022/05/04 11:21:18;;;;;;;3.15;0.73;;;9.90;59.00;;;;;;5114584;28;20060;-71
2022/05/04 11:23:49;;;;;;;3.92;0.75;;;9.90;60.00;;;;;;5112830;28;20035;-71
2022/05/04 11:26:19;;;;;;;3.78;0.63;;;9.60;59.00;;;;;;5113394;28;20528;-71
2022/05/04 11:28:46;;;;;;;0.63;0.63;;;9.30;60.80;;;;;;5113206;28;20464;-72
2022/05/04 11:31:16;;;;;;;3.97;0.70;;;8.80;62.80;;;;;;5114412;28;20407;-72
2022/05/04 11:33:44;;;;;;;4.72;0.85;;;8.40;64.90;;;;;;5106940;28;20573;-71
2022/05/04 11:36:12;;;;;;;2.00;0.60;;;8.30;65.80;;;;;;5093802;28;20500;-71
2022/05/04 11:38:39;;;;;;;3.30;0.80;;;8.50;63.60;;;;;;5095392;28;20075;-70
2022/05/04 11:41:08;;;;;;;2.35;0.60;;;9.10;60.70;;;;;;5093084;28;20056;-72
2022/05/04 11:43:36;;;;;;;4.20;0.73;;;10.10;58.50;;;;;;5099569;28;20043;-72
2022/05/04 11:46:07;;;;;;;2.85;0.60;;;11.30;54.80;;;;;;5094866;28;20523;-72
2022/05/04 11:48:37;;;;;;;2.75;0.60;;;12.60;48.90;;;;;;5096330;28;20048;-72
2022/05/04 11:51:06;;;;;;;3.05;1.17;;;14.60;46.60;;;;;;5096697;28;20521;-71
2022/05/04 11:53:34;;;;;;;1.05;0.60;;;16.30;43.90;;;;;;5089602;28;20042;-71
2022/05/04 11:56:03;;;;;;;4.40;0.82;;;16.70;42.90;;;;;;5094599;28;20483;-71
2022/05/04 11:58:32;;;;;;;4.47;0.60;;;15.60;44.30;;;;;;5093579;28;20052;-70
2022/05/04 12:01:00;;;;;;;3.63;0.75;;;15.40;45.00;;;;;;5092563;28;20044;-70
2022/05/04 12:03:28;;;;;;;1.38;0.70;;;16.00;44.10;;;;;;5109871;28;20066;-71
2022/05/04 12:05:57;;;;;;;5.65;0.60;;;17.40;41.40;;;;;;5099465;27;20043;-71
2022/05/04 12:08:26;;;;;;;1.65;0.50;;;17.90;40.60;;;;;;5103507;28;20052;-72
2022/05/04 12:10:54;;;;;;;3.50;0.65;;;17.20;40.30;;;;;;5092835;28;20055;-71
2022/05/04 12:13:23;;;;;;;1.27;0.60;;;16.30;41.60;;;;;;5091996;28;20516;-70
2022/05/04 12:15:54;;;;;;;4.93;0.80;;;16.50;42.10;;;;;;5097453;28;20460;-70
2022/05/04 12:18:26;;;;;;;1.10;0.63;;;17.60;40.90;;;;;;5083828;28;20044;-72
2022/05/04 12:20:54;;;;;;;;;;;18.00;39.30;;;;;;5107248;28;20051;-73
2022/05/04 12:23:22;;;;;;;0.93;0.63;;;16.70;40.20;;;;;;5113331;28;19924;-71
2022/05/04 12:25:50;;;;;;;4.03;0.50;;;15.30;41.90;;;;;;5104064;28;20044;-72
2022/05/04 12:28:18;;;;;;;3.15;0.70;;;13.80;44.50;;;;;;5098808;28;20044;-69
2022/05/04 12:33:32;;;;;;;5.75;1.30;;;12.40;46.80;;;;;;5112890;28;20494;-77
2022/05/04 12:36:02;;;;;;;4.32;0.60;;;12.30;46.40;;;;;;5111582;28;20082;-75
2022/05/04 12:38:31;;;;;;;3.17;0.70;;;12.20;46.10;;;;;;5101420;27;20070;-69
2022/05/04 12:41:01;;;;;;;3.33;0.40;;;11.90;46.50;;;;;;5093279;28;20142;-71
2022/05/04 12:43:31;;;;;;;3.40;0.77;;;11.80;47.60;;;;;;5096695;28;20565;-71
2022/05/04 12:45:59;;;;;;;3.60;0.52;;;12.40;47.70;;;;;;5092190;28;20082;-71
2022/05/04 12:48:27;;;;;;;5.82;1.20;;;13.90;45.00;;;;;;5090699;28;20561;-75
2022/05/04 12:50:56;;;;;;;4.43;0.57;;;14.10;43.80;;;;;;5098715;28;20040;-81
2022/05/04 12:53:24;;;;;;;4.72;0.80;;;13.10;43.90;;;;;;5082883;28;20047;-78
2022/05/04 12:58:40;;;;;;;1.85;0.55;;;11.30;47.20;;;;;;5108972;28;20043;-77
2022/05/04 13:01:08;;;;;;;1.98;0.63;;;10.80;48.30;;;;;;5112787;27;20046;-72
2022/05/04 13:03:36;;;;;;;4.75;0.90;;;11.10;48.90;;;;;;5110066;27;20048;-70
2022/05/04 13:06:04;;;;;;;3.90;0.73;;;13.00;46.50;;;;;;5101956;28;20048;-71
2022/05/04 13:08:31;;;;;;;2.78;0.57;;;14.60;43.30;;;;;;5102800;28;20048;-71
2022/05/04 13:11:00;;;;;;;4.32;1.67;;;13.90;43.10;;;;;;5101490;28;20449;-71
2022/05/04 13:13:28;;;;;;;4.43;0.60;;;13.20;45.00;;;;;;5100995;27;20507;-70
2022/05/04 13:15:55;;;;;;;3.58;0.65;;;14.70;44.70;;;;;;5109597;28;20043;-79
2022/05/04 13:18:23;;;;;;;11.07;1.55;;;17.00;40.30;;;;;;5112225;28;20104;-75
2022/05/04 13:20:51;;;;;;;1.13;0.50;;;17.20;38.90;;;;;;5110588;28;20044;-71
2022/05/04 13:23:28;;;;;;;2.33;0.93;;;16.40;40.00;;;;;;5111525;28;20049;-78
2022/05/04 13:25:55;;;;;;;6.50;0.90;;;15.60;41.00;;;;;;5084738;28;20988;-73
2022/05/04 13:28:25;;;;;;;3.30;0.57;;;14.20;43.10;;;;;;5110020;27;20040;-72
2022/05/04 13:30:52;;;;;;;3.13;0.70;;;13.20;44.70;;;;;;5090870;28;20047;-72
2022/05/04 13:33:19;;;;;;;8.35;1.17;;;14.30;44.70;;;;;;5107505;28;20059;-71
2022/05/04 13:35:47;;;;;;;7.22;1.15;;;15.70;42.30;;;;;;5116350;27;20039;-73